sensor_id;sensor_type;location;lat;lon;timestamp;temperature;humidity
22081;DHT22;11207;59.512;18.050;2022-10-17T00:02:01;9.50;99.90
22081;DHT22;11207;59.512;18.050;2022-10-17T00:04:27;9.50;99.90
22081;DHT22;11207;59.512;18.050;2022-10-17T00:06:52;9.40;99.90
22081;DHT22;11207;59.512;18.050;2022-10-17T00:09:18;9.40;99.90
22081;DHT22;11207;59.512;18.050;2022-10-17T00:11:44;9.40;99.90
22081;DHT22;11207;59.512;18.050;2022-10-17T00:14:09;9.40;99.90
22081;DHT22;11207;59.512;18.050;2022-10-17T00:16:35;9.40;99.90
22081;DHT22;11207;59.512;18.050;2022-10-17T00:19:03;9.50;99.90
22081;DHT22;11207;59.512;18.050;2022-10-17T00:21:29;9.50;99.90
22081;DHT22;11207;59.512;18.050;2022-10-17T00:23:55;9.40;99.90
22081;DHT22;11207;59.512;18.050;2022-10-17T00:26:21;9.40;99.90
22081;DHT22;11207;59.512;18.050;2022-10-17T00:28:51;9.40;99.90
22081;DHT22;11207;59.512;18.050;2022-10-17T00:31:18;9.50;99.90
22081;DHT22;11207;59.512;18.050;2022-10-17T00:33:45;9.50;99.90
22081;DHT22;11207;59.512;18.050;2022-10-17T00:36:14;9.50;99.90
22081;DHT22;11207;59.512;18.050;2022-10-17T00:38:41;9.50;99.90
22081;DHT22;11207;59.512;18.050;2022-10-17T00:41:08;9.50;99.90
22081;DHT22;11207;59.512;18.050;2022-10-17T00:46:18;9.50;99.90
22081;DHT22;11207;59.512;18.050;2022-10-17T00:48:44;9.60;99.90
22081;DHT22;11207;59.512;18.050;2022-10-17T00:51:10;9.60;99.90
22081;DHT22;11207;59.512;18.050;2022-10-17T00:53:36;9.70;99.90
22081;DHT22;11207;59.512;18.050;2022-10-17T00:56:03;9.70;99.90
22081;DHT22;11207;59.512;18.050;2022-10-17T00:58:28;9.70;99.90
22081;DHT22;11207;59.512;18.050;2022-10-17T01:00:54;9.70;99.90
22081;DHT22;11207;59.512;18.050;2022-10-17T01:03:20;9.80;99.90
22081;DHT22;11207;59.512;18.050;2022-10-17T01:05:45;9.80;99.90
22081;DHT22;11207;59.512;18.050;2022-10-17T01:08:11;9.90;99.90
22081;DHT22;11207;59.512;18.050;2022-10-17T01:13:50;9.90;99.90
22081;DHT22;11207;59.512;18.050;2022-10-17T01:16:30;9.90;99.90
22081;DHT22;11207;59.512;18.050;2022-10-17T01:21:51;9.80;99.90
22081;DHT22;11207;59.512;18.050;2022-10-17T01:30:28;10.00;99.90
22081;DHT22;11207;59.512;18.050;2022-10-17T01:33:13;10.00;99.90
22081;DHT22;11207;59.512;18.050;2022-10-17T01:39:01;9.90;99.90
22081;DHT22;11207;59.512;18.050;2022-10-17T01:41:46;10.00;99.90
22081;DHT22;11207;59.512;18.050;2022-10-17T01:44:25;10.00;99.90
22081;DHT22;11207;59.512;18.050;2022-10-17T01:46:59;10.10;99.90
22081;DHT22;11207;59.512;18.050;2022-10-17T01:49:28;10.10;99.90
22081;DHT22;11207;59.512;18.050;2022-10-17T01:52:07;10.20;99.90
22081;DHT22;11207;59.512;18.050;2022-10-17T01:57:58;10.20;99.90
22081;DHT22;11207;59.512;18.050;2022-10-17T01:59:59;10.30;99.90
22081;DHT22;11207;59.512;18.050;2022-10-17T02:02:25;10.40;99.90
22081;DHT22;11207;59.512;18.050;2022-10-17T02:04:53;10.40;99.90
22081;DHT22;11207;59.512;18.050;2022-10-17T02:07:19;10.40;99.90
22081;DHT22;11207;59.512;18.050;2022-10-17T02:09:45;10.40;99.90
22081;DHT22;11207;59.512;18.050;2022-10-17T02:12:34;10.40;99.90
22081;DHT22;11207;59.512;18.050;2022-10-17T02:20:44;10.40;99.90
22081;DHT22;11207;59.512;18.050;2022-10-17T02:23:37;10.40;99.90
22081;DHT22;11207;59.512;18.050;2022-10-17T02:26:10;10.40;99.90
22081;DHT22;11207;59.512;18.050;2022-10-17T02:31:40;10.40;99.90
22081;DHT22;11207;59.512;18.050;2022-10-17T02:36:40;10.40;99.90
22081;DHT22;11207;59.512;18.050;2022-10-17T02:39:09;10.40;99.90
22081;DHT22;11207;59.512;18.050;2022-10-17T02:41:37;10.40;99.90
22081;DHT22;11207;59.512;18.050;2022-10-17T02:44:04;10.50;99.90
22081;DHT22;11207;59.512;18.050;2022-10-17T02:46:32;10.40;99.90
22081;DHT22;11207;59.512;18.050;2022-10-17T02:49:02;10.40;99.90
22081;DHT22;11207;59.512;18.050;2022-10-17T02:51:54;10.40;99.90
22081;DHT22;11207;59.512;18.050;2022-10-17T02:54:23;10.30;99.90
22081;DHT22;11207;59.512;18.050;2022-10-17T02:57:29;10.30;99.90
22081;DHT22;11207;59.512;18.050;2022-10-17T02:59:47;10.30;99.90
22081;DHT22;11207;59.512;18.050;2022-10-17T03:02:13;10.30;99.90
22081;DHT22;11207;59.512;18.050;2022-10-17T03:04:42;10.30;99.90
22081;DHT22;11207;59.512;18.050;2022-10-17T03:07:08;10.10;99.90
22081;DHT22;11207;59.512;18.050;2022-10-17T03:09:34;10.10;99.90
22081;DHT22;11207;59.512;18.050;2022-10-17T03:11:59;10.10;99.90
22081;DHT22;11207;59.512;18.050;2022-10-17T03:14:25;10.20;99.90
22081;DHT22;11207;59.512;18.050;2022-10-17T03:16:50;10.20;99.90
22081;DHT22;11207;59.512;18.050;2022-10-17T03:19:16;10.10;99.90
22081;DHT22;11207;59.512;18.050;2022-10-17T03:21:41;10.10;99.90
22081;DHT22;11207;59.512;18.050;2022-10-17T03:24:07;10.10;99.90
22081;DHT22;11207;59.512;18.050;2022-10-17T03:26:33;10.00;99.90
22081;DHT22;11207;59.512;18.050;2022-10-17T03:28:58;9.90;99.90
22081;DHT22;11207;59.512;18.050;2022-10-17T03:31:24;9.90;99.90
22081;DHT22;11207;59.512;18.050;2022-10-17T03:33:50;9.90;99.90
22081;DHT22;11207;59.512;18.050;2022-10-17T03:36:17;9.90;99.90
22081;DHT22;11207;59.512;18.050;2022-10-17T03:38:43;9.90;99.90
22081;DHT22;11207;59.512;18.050;2022-10-17T03:41:09;9.90;99.90
22081;DHT22;11207;59.512;18.050;2022-10-17T03:43:35;9.90;99.90
22081;DHT22;11207;59.512;18.050;2022-10-17T03:46:01;9.80;99.90
22081;DHT22;11207;59.512;18.050;2022-10-17T03:48:28;9.80;99.90
22081;DHT22;11207;59.512;18.050;2022-10-17T03:51:03;9.80;99.90
22081;DHT22;11207;59.512;18.050;2022-10-17T03:53:29;9.80;99.90
22081;DHT22;11207;59.512;18.050;2022-10-17T03:55:56;9.80;99.90
22081;DHT22;11207;59.512;18.050;2022-10-17T03:58:32;9.80;99.90
22081;DHT22;11207;59.512;18.050;2022-10-17T04:01:03;9.80;99.90
22081;DHT22;11207;59.512;18.050;2022-10-17T04:03:29;9.80;99.90
22081;DHT22;11207;59.512;18.050;2022-10-17T04:05:58;9.80;99.90
22081;DHT22;11207;59.512;18.050;2022-10-17T04:08:24;9.70;99.90
22081;DHT22;11207;59.512;18.050;2022-10-17T04:10:50;9.60;99.90
22081;DHT22;11207;59.512;18.050;2022-10-17T04:13:15;9.70;99.90
22081;DHT22;11207;59.512;18.050;2022-10-17T04:15:41;9.70;99.90
22081;DHT22;11207;59.512;18.050;2022-10-17T04:18:06;9.70;99.90
22081;DHT22;11207;59.512;18.050;2022-10-17T04:20:34;9.60;99.90
22081;DHT22;11207;59.512;18.050;2022-10-17T04:22:59;9.60;99.90
22081;DHT22;11207;59.512;18.050;2022-10-17T04:25:25;9.60;99.90
22081;DHT22;11207;59.512;18.050;2022-10-17T04:27:51;9.60;99.90
22081;DHT22;11207;59.512;18.050;2022-10-17T04:30:16;9.60;99.90
22081;DHT22;11207;59.512;18.050;2022-10-17T04:32:42;9.60;99.90
22081;DHT22;11207;59.512;18.050;2022-10-17T04:35:08;9.60;99.90
22081;DHT22;11207;59.512;18.050;2022-10-17T04:37:34;9.60;99.90
22081;DHT22;11207;59.512;18.050;2022-10-17T04:39:59;9.60;99.90
22081;DHT22;11207;59.512;18.050;2022-10-17T04:42:26;9.60;99.90
22081;DHT22;11207;59.512;18.050;2022-10-17T04:44:53;9.70;99.90
22081;DHT22;11207;59.512;18.050;2022-10-17T04:47:19;9.60;99.90
22081;DHT22;11207;59.512;18.050;2022-10-17T04:49:46;9.40;99.90
22081;DHT22;11207;59.512;18.050;2022-10-17T04:52:12;9.50;99.90
22081;DHT22;11207;59.512;18.050;2022-10-17T04:54:37;9.50;99.90
22081;DHT22;11207;59.512;18.050;2022-10-17T04:57:03;9.40;99.90
22081;DHT22;11207;59.512;18.050;2022-10-17T04:59:28;9.40;99.90
22081;DHT22;11207;59.512;18.050;2022-10-17T05:01:55;9.40;99.90
22081;DHT22;11207;59.512;18.050;2022-10-17T05:04:21;9.30;99.90
22081;DHT22;11207;59.512;18.050;2022-10-17T05:06:47;9.30;99.90
22081;DHT22;11207;59.512;18.050;2022-10-17T05:09:12;9.20;99.90
22081;DHT22;11207;59.512;18.050;2022-10-17T05:11:38;9.30;99.90
22081;DHT22;11207;59.512;18.050;2022-10-17T05:14:04;9.30;99.90
22081;DHT22;11207;59.512;18.050;2022-10-17T05:16:29;9.30;99.90
22081;DHT22;11207;59.512;18.050;2022-10-17T05:18:56;9.30;99.90
22081;DHT22;11207;59.512;18.050;2022-10-17T05:21:24;9.30;99.90
22081;DHT22;11207;59.512;18.050;2022-10-17T05:23:50;9.30;99.90
22081;DHT22;11207;59.512;18.050;2022-10-17T05:26:20;9.30;99.90
22081;DHT22;11207;59.512;18.050;2022-10-17T05:28:46;9.30;99.90
22081;DHT22;11207;59.512;18.050;2022-10-17T05:31:12;9.30;99.90
22081;DHT22;11207;59.512;18.050;2022-10-17T05:33:38;9.20;99.90
22081;DHT22;11207;59.512;18.050;2022-10-17T05:36:04;9.30;99.90
22081;DHT22;11207;59.512;18.050;2022-10-17T05:38:30;9.30;99.90
22081;DHT22;11207;59.512;18.050;2022-10-17T05:41:04;9.20;99.90
22081;DHT22;11207;59.512;18.050;2022-10-17T05:43:31;9.30;99.90
22081;DHT22;11207;59.512;18.050;2022-10-17T05:45:57;9.30;99.90
22081;DHT22;11207;59.512;18.050;2022-10-17T05:48:23;9.30;99.90
22081;DHT22;11207;59.512;18.050;2022-10-17T05:50:57;9.30;99.90
22081;DHT22;11207;59.512;18.050;2022-10-17T05:53:23;9.40;99.90
22081;DHT22;11207;59.512;18.050;2022-10-17T05:55:59;9.30;99.90
22081;DHT22;11207;59.512;18.050;2022-10-17T05:58:26;9.40;99.90
22081;DHT22;11207;59.512;18.050;2022-10-17T06:00:59;9.20;99.90
22081;DHT22;11207;59.512;18.050;2022-10-17T06:03:25;9.20;99.90
22081;DHT22;11207;59.512;18.050;2022-10-17T06:05:51;9.30;99.90
22081;DHT22;11207;59.512;18.050;2022-10-17T06:08:17;9.20;99.90
22081;DHT22;11207;59.512;18.050;2022-10-17T06:10:45;9.20;99.90
22081;DHT22;11207;59.512;18.050;2022-10-17T06:13:11;9.20;99.90
22081;DHT22;11207;59.512;18.050;2022-10-17T06:15:37;9.30;99.90
22081;DHT22;11207;59.512;18.050;2022-10-17T06:18:02;9.20;99.90
22081;DHT22;11207;59.512;18.050;2022-10-17T06:20:28;9.20;99.90
22081;DHT22;11207;59.512;18.050;2022-10-17T06:22:54;9.30;99.90
22081;DHT22;11207;59.512;18.050;2022-10-17T06:25:19;9.30;99.90
22081;DHT22;11207;59.512;18.050;2022-10-17T06:27:45;9.30;99.90
22081;DHT22;11207;59.512;18.050;2022-10-17T06:30:10;9.30;99.90
22081;DHT22;11207;59.512;18.050;2022-10-17T06:32:36;9.30;99.90
22081;DHT22;11207;59.512;18.050;2022-10-17T06:35:02;9.30;99.90
22081;DHT22;11207;59.512;18.050;2022-10-17T06:37:31;9.30;99.90
22081;DHT22;11207;59.512;18.050;2022-10-17T06:39:57;9.30;99.90
22081;DHT22;11207;59.512;18.050;2022-10-17T06:42:23;9.30;99.90
22081;DHT22;11207;59.512;18.050;2022-10-17T06:44:49;9.40;99.90
22081;DHT22;11207;59.512;18.050;2022-10-17T06:47:14;9.40;99.90
22081;DHT22;11207;59.512;18.050;2022-10-17T06:49:40;9.50;99.90
22081;DHT22;11207;59.512;18.050;2022-10-17T06:52:06;9.40;99.90
22081;DHT22;11207;59.512;18.050;2022-10-17T06:54:31;9.50;99.90
22081;DHT22;11207;59.512;18.050;2022-10-17T06:56:57;9.40;99.90
22081;DHT22;11207;59.512;18.050;2022-10-17T06:59:23;9.50;99.90
22081;DHT22;11207;59.512;18.050;2022-10-17T07:01:48;9.50;99.90
22081;DHT22;11207;59.512;18.050;2022-10-17T07:04:14;9.50;99.90
22081;DHT22;11207;59.512;18.050;2022-10-17T07:06:40;9.60;99.90
22081;DHT22;11207;59.512;18.050;2022-10-17T07:09:06;9.60;99.90
22081;DHT22;11207;59.512;18.050;2022-10-17T07:11:32;9.70;99.90
22081;DHT22;11207;59.512;18.050;2022-10-17T07:14:00;9.70;99.90
22081;DHT22;11207;59.512;18.050;2022-10-17T07:16:26;9.70;99.90
22081;DHT22;11207;59.512;18.050;2022-10-17T07:18:52;9.80;99.90
22081;DHT22;11207;59.512;18.050;2022-10-17T07:21:19;9.80;99.90
22081;DHT22;11207;59.512;18.050;2022-10-17T07:23:45;9.80;99.90
22081;DHT22;11207;59.512;18.050;2022-10-17T07:26:13;9.90;99.90
22081;DHT22;11207;59.512;18.050;2022-10-17T07:28:42;9.90;99.90
22081;DHT22;11207;59.512;18.050;2022-10-17T07:31:14;10.00;99.90
22081;DHT22;11207;59.512;18.050;2022-10-17T07:33:41;10.10;99.90
22081;DHT22;11207;59.512;18.050;2022-10-17T07:36:07;10.00;99.90
22081;DHT22;11207;59.512;18.050;2022-10-17T07:38:33;10.10;99.90
22081;DHT22;11207;59.512;18.050;2022-10-17T07:41:00;10.10;99.90
22081;DHT22;11207;59.512;18.050;2022-10-17T07:43:28;10.20;99.90
22081;DHT22;11207;59.512;18.050;2022-10-17T07:45:54;10.30;99.90
22081;DHT22;11207;59.512;18.050;2022-10-17T07:48:20;10.30;99.90
22081;DHT22;11207;59.512;18.050;2022-10-17T07:50:47;10.20;99.90
22081;DHT22;11207;59.512;18.050;2022-10-17T07:53:12;10.40;99.90
22081;DHT22;11207;59.512;18.050;2022-10-17T07:55:39;10.40;99.90
22081;DHT22;11207;59.512;18.050;2022-10-17T07:58:06;10.40;99.90
22081;DHT22;11207;59.512;18.050;2022-10-17T08:00:31;10.40;99.90
22081;DHT22;11207;59.512;18.050;2022-10-17T08:02:57;10.40;99.90
22081;DHT22;11207;59.512;18.050;2022-10-17T08:05:23;10.40;99.90
22081;DHT22;11207;59.512;18.050;2022-10-17T08:07:48;10.50;99.90
22081;DHT22;11207;59.512;18.050;2022-10-17T08:10:15;10.50;99.90
22081;DHT22;11207;59.512;18.050;2022-10-17T08:12:41;10.50;99.90
22081;DHT22;11207;59.512;18.050;2022-10-17T08:15:07;10.50;99.90
22081;DHT22;11207;59.512;18.050;2022-10-17T08:17:34;10.60;99.90
22081;DHT22;11207;59.512;18.050;2022-10-17T08:20:01;10.60;99.90
22081;DHT22;11207;59.512;18.050;2022-10-17T08:22:26;10.60;99.90
22081;DHT22;11207;59.512;18.050;2022-10-17T08:24:52;10.60;99.90
22081;DHT22;11207;59.512;18.050;2022-10-17T08:27:18;10.70;99.90
22081;DHT22;11207;59.512;18.050;2022-10-17T08:29:49;10.60;99.90
22081;DHT22;11207;59.512;18.050;2022-10-17T08:32:19;10.80;99.90
22081;DHT22;11207;59.512;18.050;2022-10-17T08:34:45;10.80;99.90
22081;DHT22;11207;59.512;18.050;2022-10-17T08:37:10;10.80;99.90
22081;DHT22;11207;59.512;18.050;2022-10-17T08:39:39;10.80;99.90
22081;DHT22;11207;59.512;18.050;2022-10-17T08:44:55;10.90;99.90
22081;DHT22;11207;59.512;18.050;2022-10-17T08:47:35;10.90;99.90
22081;DHT22;11207;59.512;18.050;2022-10-17T08:50:04;11.00;99.90
22081;DHT22;11207;59.512;18.050;2022-10-17T08:52:54;11.00;99.90
22081;DHT22;11207;59.512;18.050;2022-10-17T08:57:56;11.10;99.90
22081;DHT22;11207;59.512;18.050;2022-10-17T09:00:21;11.10;99.90
22081;DHT22;11207;59.512;18.050;2022-10-17T09:05:55;11.20;99.90
22081;DHT22;11207;59.512;18.050;2022-10-17T09:11:24;11.30;99.90
22081;DHT22;11207;59.512;18.050;2022-10-17T09:19:23;11.30;99.90
22081;DHT22;11207;59.512;18.050;2022-10-17T09:22:03;11.30;99.90
22081;DHT22;11207;59.512;18.050;2022-10-17T09:27:02;11.50;99.90
22081;DHT22;11207;59.512;18.050;2022-10-17T09:29:29;11.60;99.90
22081;DHT22;11207;59.512;18.050;2022-10-17T09:32:04;11.60;99.90
22081;DHT22;11207;59.512;18.050;2022-10-17T09:34:34;11.50;99.90
22081;DHT22;11207;59.512;18.050;2022-10-17T09:37:01;11.60;99.90
22081;DHT22;11207;59.512;18.050;2022-10-17T09:39:27;11.60;99.90
22081;DHT22;11207;59.512;18.050;2022-10-17T09:41:59;11.60;99.90
22081;DHT22;11207;59.512;18.050;2022-10-17T09:44:39;11.70;99.90
22081;DHT22;11207;59.512;18.050;2022-10-17T09:47:24;11.70;99.90
22081;DHT22;11207;59.512;18.050;2022-10-17T09:49:51;11.80;99.90
22081;DHT22;11207;59.512;18.050;2022-10-17T09:52:21;11.80;99.90
22081;DHT22;11207;59.512;18.050;2022-10-17T09:55:01;11.80;99.90
22081;DHT22;11207;59.512;18.050;2022-10-17T09:57:27;11.80;99.90
22081;DHT22;11207;59.512;18.050;2022-10-17T10:00:03;11.90;99.90
22081;DHT22;11207;59.512;18.050;2022-10-17T10:02:30;11.90;99.90
22081;DHT22;11207;59.512;18.050;2022-10-17T10:05:05;12.00;99.90
22081;DHT22;11207;59.512;18.050;2022-10-17T10:07:36;12.10;99.90
22081;DHT22;11207;59.512;18.050;2022-10-17T10:10:05;12.10;99.90
22081;DHT22;11207;59.512;18.050;2022-10-17T10:12:34;12.20;99.90
22081;DHT22;11207;59.512;18.050;2022-10-17T10:15:01;12.20;99.90
22081;DHT22;11207;59.512;18.050;2022-10-17T10:20:03;12.20;99.90
22081;DHT22;11207;59.512;18.050;2022-10-17T10:25:29;12.30;99.90
22081;DHT22;11207;59.512;18.050;2022-10-17T10:27:55;12.50;99.90
22081;DHT22;11207;59.512;18.050;2022-10-17T10:30:26;12.60;99.90
22081;DHT22;11207;59.512;18.050;2022-10-17T10:32:53;12.60;99.90
22081;DHT22;11207;59.512;18.050;2022-10-17T10:35:21;12.70;99.90
22081;DHT22;11207;59.512;18.050;2022-10-17T10:37:54;12.80;99.90
22081;DHT22;11207;59.512;18.050;2022-10-17T10:40:35;12.90;99.90
22081;DHT22;11207;59.512;18.050;2022-10-17T10:43:04;12.90;99.90
22081;DHT22;11207;59.512;18.050;2022-10-17T10:48:22;13.10;99.90
22081;DHT22;11207;59.512;18.050;2022-10-17T10:51:07;13.10;99.90
22081;DHT22;11207;59.512;18.050;2022-10-17T10:54:00;13.10;99.90
22081;DHT22;11207;59.512;18.050;2022-10-17T10:56:53;13.10;99.90
22081;DHT22;11207;59.512;18.050;2022-10-17T10:59:19;13.30;99.90
22081;DHT22;11207;59.512;18.050;2022-10-17T11:10:07;13.30;99.90
22081;DHT22;11207;59.512;18.050;2022-10-17T11:12:37;13.30;99.90
22081;DHT22;11207;59.512;18.050;2022-10-17T11:15:19;13.40;99.90
22081;DHT22;11207;59.512;18.050;2022-10-17T11:17:54;13.50;99.90
22081;DHT22;11207;59.512;18.050;2022-10-17T11:23:24;13.60;99.90
22081;DHT22;11207;59.512;18.050;2022-10-17T11:25:53;13.60;99.90
22081;DHT22;11207;59.512;18.050;2022-10-17T11:28:23;13.70;99.90
22081;DHT22;11207;59.512;18.050;2022-10-17T11:31:16;13.60;99.90
22081;DHT22;11207;59.512;18.050;2022-10-17T11:34:00;13.70;99.90
22081;DHT22;11207;59.512;18.050;2022-10-17T11:36:35;13.70;99.90
22081;DHT22;11207;59.512;18.050;2022-10-17T11:41:53;13.80;99.90
22081;DHT22;11207;59.512;18.050;2022-10-17T11:46:58;13.80;99.90
22081;DHT22;11207;59.512;18.050;2022-10-17T11:49:34;13.70;99.90
22081;DHT22;11207;59.512;18.050;2022-10-17T11:55:00;13.80;99.90
22081;DHT22;11207;59.512;18.050;2022-10-17T12:08:35;13.80;99.90
22081;DHT22;11207;59.512;18.050;2022-10-17T12:13:54;13.60;99.90
22081;DHT22;11207;59.512;18.050;2022-10-17T12:19:15;13.60;99.90
22081;DHT22;11207;59.512;18.050;2022-10-17T12:22:17;13.60;99.90
22081;DHT22;11207;59.512;18.050;2022-10-17T12:24:53;13.60;99.90
22081;DHT22;11207;59.512;18.050;2022-10-17T12:29:48;13.40;99.90
22081;DHT22;11207;59.512;18.050;2022-10-17T12:32:15;13.40;99.90
22081;DHT22;11207;59.512;18.050;2022-10-17T12:34:51;13.40;99.90
22081;DHT22;11207;59.512;18.050;2022-10-17T12:38:19;13.40;99.90
22081;DHT22;11207;59.512;18.050;2022-10-17T12:43:02;13.40;99.90
22081;DHT22;11207;59.512;18.050;2022-10-17T12:45:52;13.40;99.90
22081;DHT22;11207;59.512;18.050;2022-10-17T12:51:08;13.40;99.90
22081;DHT22;11207;59.512;18.050;2022-10-17T12:54:14;13.40;99.90
22081;DHT22;11207;59.512;18.050;2022-10-17T12:56:47;13.40;99.90
22081;DHT22;11207;59.512;18.050;2022-10-17T12:59:27;13.40;99.90
22081;DHT22;11207;59.512;18.050;2022-10-17T13:01:56;13.40;99.90
22081;DHT22;11207;59.512;18.050;2022-10-17T13:04:23;13.40;99.90
22081;DHT22;11207;59.512;18.050;2022-10-17T13:06:55;13.30;99.90
22081;DHT22;11207;59.512;18.050;2022-10-17T13:09:26;13.30;99.90
22081;DHT22;11207;59.512;18.050;2022-10-17T13:11:57;13.30;99.90
22081;DHT22;11207;59.512;18.050;2022-10-17T13:14:24;13.30;99.90
22081;DHT22;11207;59.512;18.050;2022-10-17T13:16:54;13.30;99.90
22081;DHT22;11207;59.512;18.050;2022-10-17T13:19:29;13.20;99.90
22081;DHT22;11207;59.512;18.050;2022-10-17T13:21:57;13.20;99.90
22081;DHT22;11207;59.512;18.050;2022-10-17T13:24:39;13.10;99.90
22081;DHT22;11207;59.512;18.050;2022-10-17T13:27:26;13.10;99.90
22081;DHT22;11207;59.512;18.050;2022-10-17T13:29:53;13.10;99.90
22081;DHT22;11207;59.512;18.050;2022-10-17T13:32:21;13.10;99.90
22081;DHT22;11207;59.512;18.050;2022-10-17T13:35:08;13.10;99.90
22081;DHT22;11207;59.512;18.050;2022-10-17T13:37:34;13.00;99.90
22081;DHT22;11207;59.512;18.050;2022-10-17T13:40:01;13.00;99.90
22081;DHT22;11207;59.512;18.050;2022-10-17T13:42:34;12.90;99.90
22081;DHT22;11207;59.512;18.050;2022-10-17T13:45:01;12.90;99.90
22081;DHT22;11207;59.512;18.050;2022-10-17T13:47:29;12.80;99.90
22081;DHT22;11207;59.512;18.050;2022-10-17T13:49:57;12.80;99.90
22081;DHT22;11207;59.512;18.050;2022-10-17T13:52:25;12.70;99.90
22081;DHT22;11207;59.512;18.050;2022-10-17T13:54:52;12.70;99.90
22081;DHT22;11207;59.512;18.050;2022-10-17T13:57:22;12.70;99.90
22081;DHT22;11207;59.512;18.050;2022-10-17T14:02:27;12.70;99.90
22081;DHT22;11207;59.512;18.050;2022-10-17T14:05:10;12.70;99.90
22081;DHT22;11207;59.512;18.050;2022-10-17T14:07:44;12.70;99.90
22081;DHT22;11207;59.512;18.050;2022-10-17T14:10:35;12.60;99.90
22081;DHT22;11207;59.512;18.050;2022-10-17T14:13:02;12.60;99.90
22081;DHT22;11207;59.512;18.050;2022-10-17T14:15:34;12.60;99.90
22081;DHT22;11207;59.512;18.050;2022-10-17T14:18:05;12.50;99.90
22081;DHT22;11207;59.512;18.050;2022-10-17T14:20:32;12.50;99.90
22081;DHT22;11207;59.512;18.050;2022-10-17T14:22:59;12.50;99.90
22081;DHT22;11207;59.512;18.050;2022-10-17T14:25:36;12.40;99.90
22081;DHT22;11207;59.512;18.050;2022-10-17T14:30:41;12.30;99.90
22081;DHT22;11207;59.512;18.050;2022-10-17T14:33:22;12.40;99.90
22081;DHT22;11207;59.512;18.050;2022-10-17T14:35:53;12.30;99.90
22081;DHT22;11207;59.512;18.050;2022-10-17T14:38:20;12.30;99.90
22081;DHT22;11207;59.512;18.050;2022-10-17T14:40:58;12.30;99.90
22081;DHT22;11207;59.512;18.050;2022-10-17T14:43:27;12.30;99.90
22081;DHT22;11207;59.512;18.050;2022-10-17T14:45:56;12.20;99.90
22081;DHT22;11207;59.512;18.050;2022-10-17T14:48:24;12.20;99.90
22081;DHT22;11207;59.512;18.050;2022-10-17T14:53:35;12.10;99.90
22081;DHT22;11207;59.512;18.050;2022-10-17T14:58:49;12.00;99.90
22081;DHT22;11207;59.512;18.050;2022-10-17T15:01:16;12.00;99.90
22081;DHT22;11207;59.512;18.050;2022-10-17T15:03:42;12.00;99.90
22081;DHT22;11207;59.512;18.050;2022-10-17T15:06:20;11.90;99.90
22081;DHT22;11207;59.512;18.050;2022-10-17T15:08:47;11.90;99.90
22081;DHT22;11207;59.512;18.050;2022-10-17T15:11:13;11.80;99.90
22081;DHT22;11207;59.512;18.050;2022-10-17T15:13:39;11.80;99.90
22081;DHT22;11207;59.512;18.050;2022-10-17T15:16:34;11.70;99.90
22081;DHT22;11207;59.512;18.050;2022-10-17T15:19:00;11.70;99.90
22081;DHT22;11207;59.512;18.050;2022-10-17T15:21:27;11.70;99.90
22081;DHT22;11207;59.512;18.050;2022-10-17T15:23:53;11.70;99.90
22081;DHT22;11207;59.512;18.050;2022-10-17T15:28:45;11.60;99.90
22081;DHT22;11207;59.512;18.050;2022-10-17T15:31:14;11.60;99.90
22081;DHT22;11207;59.512;18.050;2022-10-17T15:34:03;11.60;99.90
22081;DHT22;11207;59.512;18.050;2022-10-17T15:36:34;11.50;99.90
22081;DHT22;11207;59.512;18.050;2022-10-17T15:39:01;11.50;99.90
22081;DHT22;11207;59.512;18.050;2022-10-17T15:41:29;11.50;99.90
22081;DHT22;11207;59.512;18.050;2022-10-17T15:43:56;11.40;99.90
22081;DHT22;11207;59.512;18.050;2022-10-17T15:46:29;11.40;99.90
22081;DHT22;11207;59.512;18.050;2022-10-17T15:49:01;11.40;99.90
22081;DHT22;11207;59.512;18.050;2022-10-17T15:51:27;11.40;99.90
22081;DHT22;11207;59.512;18.050;2022-10-17T15:53:52;11.40;99.90
22081;DHT22;11207;59.512;18.050;2022-10-17T15:56:24;11.40;99.90
22081;DHT22;11207;59.512;18.050;2022-10-17T15:58:51;11.40;99.90
22081;DHT22;11207;59.512;18.050;2022-10-17T16:01:27;11.30;99.90
22081;DHT22;11207;59.512;18.050;2022-10-17T16:03:53;11.30;99.90
22081;DHT22;11207;59.512;18.050;2022-10-17T16:06:20;11.30;99.90
22081;DHT22;11207;59.512;18.050;2022-10-17T16:08:46;11.20;99.90
22081;DHT22;11207;59.512;18.050;2022-10-17T16:11:29;11.20;99.90
22081;DHT22;11207;59.512;18.050;2022-10-17T16:13:59;11.20;99.90
22081;DHT22;11207;59.512;18.050;2022-10-17T16:16:25;11.20;99.90
22081;DHT22;11207;59.512;18.050;2022-10-17T16:18:51;11.10;99.90
22081;DHT22;11207;59.512;18.050;2022-10-17T16:21:19;11.10;99.90
22081;DHT22;11207;59.512;18.050;2022-10-17T16:23:45;11.10;99.90
22081;DHT22;11207;59.512;18.050;2022-10-17T16:26:11;11.10;99.90
22081;DHT22;11207;59.512;18.050;2022-10-17T16:28:41;11.00;99.90
22081;DHT22;11207;59.512;18.050;2022-10-17T16:31:40;11.00;99.90
22081;DHT22;11207;59.512;18.050;2022-10-17T16:34:07;11.00;99.90
22081;DHT22;11207;59.512;18.050;2022-10-17T16:36:33;11.00;99.90
22081;DHT22;11207;59.512;18.050;2022-10-17T16:39:00;11.00;99.90
22081;DHT22;11207;59.512;18.050;2022-10-17T16:41:33;11.00;99.90
22081;DHT22;11207;59.512;18.050;2022-10-17T16:44:00;11.00;99.90
22081;DHT22;11207;59.512;18.050;2022-10-17T16:46:28;10.90;99.90
22081;DHT22;11207;59.512;18.050;2022-10-17T16:48:54;10.90;99.90
22081;DHT22;11207;59.512;18.050;2022-10-17T16:51:20;10.90;99.90
22081;DHT22;11207;59.512;18.050;2022-10-17T16:53:48;10.80;99.90
22081;DHT22;11207;59.512;18.050;2022-10-17T16:56:17;10.90;99.90
22081;DHT22;11207;59.512;18.050;2022-10-17T16:58:43;10.80;99.90
22081;DHT22;11207;59.512;18.050;2022-10-17T17:01:14;10.80;99.90
22081;DHT22;11207;59.512;18.050;2022-10-17T17:03:41;10.80;99.90
22081;DHT22;11207;59.512;18.050;2022-10-17T17:06:10;10.80;99.90
22081;DHT22;11207;59.512;18.050;2022-10-17T17:08:40;10.80;99.90
22081;DHT22;11207;59.512;18.050;2022-10-17T17:11:07;10.80;99.90
22081;DHT22;11207;59.512;18.050;2022-10-17T17:13:33;10.80;99.90
22081;DHT22;11207;59.512;18.050;2022-10-17T17:16:07;10.70;99.90
22081;DHT22;11207;59.512;18.050;2022-10-17T17:18:33;10.80;99.90
22081;DHT22;11207;59.512;18.050;2022-10-17T17:21:01;10.70;99.90
22081;DHT22;11207;59.512;18.050;2022-10-17T17:23:27;10.70;99.90
22081;DHT22;11207;59.512;18.050;2022-10-17T17:26:01;10.70;99.90
22081;DHT22;11207;59.512;18.050;2022-10-17T17:28:28;10.70;99.90
22081;DHT22;11207;59.512;18.050;2022-10-17T17:30:54;10.70;99.90
22081;DHT22;11207;59.512;18.050;2022-10-17T17:33:21;10.60;99.90